Greenvale, New York
Current Conditions -  °F | °C
As of 8:53 PM on Saturday 22 Nov 2014 (Local Time) from KFRG Reporting Station
Broken Clouds Broken Clouds  
Wind Chill: 39°   Ceiling: 11000
Heat Index: 44°   Visibility: 10mi
Dew Point: 23°   Wind: 10mph
Humidity: 43%   Direction: 240°WSW
Pressure: 30.23"   Gusts: NA
Location:  40.81°N, 73.63°W
Report Text: KFRG 230153Z 24009KT 10SM BKN110 07/M05 A3023 RMK AO2 SLP238 T00671050
Loading
Personal Weather Stations






























Interactive Weather Map New forecast layout! Learn more

10-Day Weather Forecast

Advertisements
Track Severe Weather on mobile